KDNL/DNL METAR and TAF weather

Enter ICAO airport designator
Station Type Date Time Source
KDNL METAR 2019/02/16 02:53 UTC NOAA

KDNL 160253Z AUTO 00000KT 10SM -RA SCT037 OVC050 16/13 A2987 RMK AO2 SLP111 P0009 60009 T01560133 58002 TSNO


Station Type Date Time Source
KDNL Decoded METAR 2019/02/16 02:53 UTC NOAA

AUGUSTA DANIEL FIELD, GA, United States (KDNL) 33-28N 82-02W 130M
Feb 15, 2019 - 09:53 PM EST / 2019.02.16 0253 UTC
Wind: Calm:0
Visibility: 10 mile(s):0
Sky conditions: overcast
Weather: light rain
Precipitation last hour: 0.09 inches
Temperature: 60.1 F (15.6 C)
Dew Point: 55.9 F (13.3 C)
Relative Humidity: 86%
Pressure (altimeter): 29.87 in. Hg (1011 hPa)
Pressure tendency: 0.01 inches (0.2 hPa) lower than three hours ago
ob: KDNL 160253Z AUTO 00000KT 10SM -RA SCT037 OVC050 16/13 A2987 RMK AO2 SLP111 P0009 60009 T01560133 58002 TSNO
cycle: 3

Station Type Date Time Source
KDNL TAF 2019/02/16 04:45 UTC NOAA

TAF
AMD KDNL 160343Z 1604/1624 24004KT 6SM -RA SCT020 OVC035
TEMPO 1604/1607 OVC020
FM160700 21005KT 4SM -RA BR OVC012 WS020/23040KT
FM161100 23005KT 4SM -RA OVC008 WS020/23040KT
FM161700 27008KT P6SM OVC012
FM162200 01007KT P6SM OVC008


Example: see airport list